Time;durP1;ratioP1;P1;durP2;ratioP2;P2;SDS_P1;SDS_P2;PMS_P1;PMS_P2;Temp;Humidity;BMP_temperature;BMP_pressure;BME280_temperature;BME280_humidity;BME280_pressure;Samples;Min_cycle;Max_cycle;Signal;HPM_P1;HPM_P2
2021/04/15 00:00:48;;;;;;;;;;;;;;;8.27;39.82;102416.56;4993770;28;99145;-77
2021/04/15 00:03:15;;;;;;;;;;;;;;;8.33;39.49;102421.91;4990788;28;99553;-77
2021/04/15 00:05:41;;;;;;;;;;;;;;;8.63;39.11;102412.19;4994643;28;96766;-77
2021/04/15 00:08:08;;;;;;;;;;;;;;;8.86;38.46;102413.03;4998525;28;98810;-77
2021/04/15 00:10:35;;;;;;;;;;;;;;;8.64;39.08;102411.31;4994925;28;98114;-77
2021/04/15 00:13:01;;;;;;;;;;;;;;;8.67;39.07;102413.94;4998243;28;98836;-78
2021/04/15 00:15:28;;;;;;;;;;;;;;;8.01;40.08;102411.28;5007156;28;97240;-78
2021/04/15 00:17:54;;;;;;;;;;;;;;;8.38;39.16;102413.97;5001931;28;97003;-78
2021/04/15 00:20:20;;;;;;;;;;;;;;;8.32;39.80;102414.88;4993599;28;99167;-78
2021/04/15 00:22:46;;;;;;;;;;;;;;;8.17;40.09;102413.94;5000609;28;98969;-79
2021/04/15 00:25:12;;;;;;;;;;;;;;;8.35;39.56;102411.34;4993368;28;97106;-77
2021/04/15 00:27:38;;;;;;;;;;;;;;;8.68;39.01;102410.44;4994223;28;96787;-78
2021/04/15 00:30:05;;;;;;;;;;;;;;;8.15;39.87;102411.28;5002534;28;98983;-78
2021/04/15 00:32:31;;;;;;;;;;;;;;;8.33;39.43;102411.34;5005780;28;98915;-78
2021/04/15 00:34:57;;;;;;;;;;;;;;;8.37;39.51;102413.09;5002729;28;97056;-77
2021/04/15 00:37:23;;;;;;;;;;;;;;;8.84;38.94;102404.28;5004063;28;96933;-77
2021/04/15 00:39:49;;;;;;;;;;;;;;;8.80;38.96;102413.03;5000712;28;97808;-77
2021/04/15 00:42:15;;;;;;;;;;;;;;;8.78;38.52;102406.91;5000147;28;98566;-75
2021/04/15 00:44:41;;;;;;;;;;;;;;;8.66;38.96;102406.94;4998935;28;96885;-77
2021/04/15 00:47:09;;;;;;;;;;;;;;;8.21;39.36;102410.41;4999993;28;96844;-77
2021/04/15 00:49:39;;;;;;;;;;;;;;;8.46;39.42;102414.88;4997712;28;98403;-77
2021/04/15 00:52:06;;;;;;;;;;;;;;;8.09;39.82;102411.28;4996874;28;99131;-77
2021/04/15 00:54:35;;;;;;;;;;;;;;;8.15;39.72;102413.03;4998420;28;97561;-77
2021/04/15 00:57:02;;;;;;;;;;;;;;;8.21;40.09;102410.41;5000740;28;98659;-76
2021/04/15 00:59:28;;;;;;;;;;;;;;;8.18;39.99;102403.41;5004340;28;97826;-77
2021/04/15 01:01:54;;;;;;;;;;;;;;;8.61;39.29;102411.31;5012034;28;98800;-76
2021/04/15 01:04:20;;;;;;;;;;;;;;;8.43;39.74;102408.69;5012332;28;96776;-78
2021/04/15 01:06:47;;;;;;;;;;;;;;;8.62;39.28;102408.69;5007506;28;96802;-77
2021/04/15 01:09:13;;;;;;;;;;;;;;;9.09;38.56;102400.69;5011013;28;99332;-77
2021/04/15 01:11:44;;;;;;;;;;;;;;;9.13;38.62;102406.81;5004209;28;98021;-77
2021/04/15 01:14:14;;;;;;;;;;;;;;;9.04;38.70;102405.09;4997707;28;96690;-78
2021/04/15 01:16:45;;;;;;;;;;;;;;;8.73;39.50;102408.66;4996931;28;96807;-78
2021/04/15 01:19:22;;;;;;;;;;;;;;;8.63;39.50;102401.66;4991985;28;99152;-78
2021/04/15 01:22:00;;;;;;;;;;;;;;;8.36;40.05;102402.56;4989793;28;98826;-78
2021/04/15 01:24:29;;;;;;;;;;;;;;;8.29;40.70;102404.28;4981856;28;97216;-77
2021/04/15 01:27:09;;;;;;;;;;;;;;;8.28;40.50;102402.53;4989419;28;96843;-78
2021/04/15 01:29:40;;;;;;;;;;;;;;;7.74;41.56;102394.56;4987918;28;99520;-78
2021/04/15 01:32:13;;;;;;;;;;;;;;;7.69;42.10;102397.19;4992202;28;98893;-78
2021/04/15 01:34:42;;;;;;;;;;;;;;;7.95;41.53;102397.22;4992244;28;97502;-76
2021/04/15 01:37:14;;;;;;;;;;;;;;;7.56;42.22;102398.91;4992920;28;96849;-77
2021/04/15 01:39:42;;;;;;;;;;;;;;;7.40;42.83;102399.72;4990565;28;98921;-78
2021/04/15 01:42:09;;;;;;;;;;;;;;;7.77;41.99;102391.94;4993237;28;101723;-77
2021/04/15 01:44:37;;;;;;;;;;;;;;;7.97;41.73;102388.47;4990886;28;96895;-79
2021/04/15 01:47:08;;;;;;;;;;;;;;;7.83;41.80;102391.94;4991355;28;98664;-78
2021/04/15 01:49:37;;;;;;;;;;;;;;;7.75;41.76;102386.66;4992419;28;99214;-77
2021/04/15 01:52:05;;;;;;;;;;;;;;;7.81;41.83;102388.44;4990771;28;98899;-78
2021/04/15 01:54:34;;;;;;;;;;;;;;;8.21;41.02;102387.59;4988444;28;96876;-77
2021/04/15 01:57:02;;;;;;;;;;;;;;;8.26;40.93;102383.22;4986329;28;96833;-77
2021/04/15 01:59:30;;;;;;;;;;;;;;;8.01;41.48;102381.44;4991392;28;99556;-77
2021/04/15 02:01:58;;;;;;;;;;;;;;;8.47;40.44;102389.41;4988799;28;99389;-77
2021/04/15 02:04:27;;;;;;;;;;;;;;;8.29;40.87;102382.34;4992904;28;96779;-77
2021/04/15 02:06:55;;;;;;;;;;;;;;;8.04;41.52;102391.97;4994512;28;97084;-77
2021/04/15 02:09:21;;;;;;;;;;;;;;;7.98;41.51;102384.97;4993557;28;98843;-77
2021/04/15 02:11:49;;;;;;;;;;;;;;;8.23;41.40;102387.59;4992056;28;101481;-77
2021/04/15 02:14:17;;;;;;;;;;;;;;;8.07;41.84;102392.00;4997407;28;96879;-78
2021/04/15 02:16:46;;;;;;;;;;;;;;;7.78;42.82;102388.44;4993825;28;98440;-78
2021/04/15 02:19:15;;;;;;;;;;;;;;;8.13;41.85;102386.75;4995724;28;98917;-77
2021/04/15 02:21:45;;;;;;;;;;;;;;;8.30;41.51;102392.91;4988836;28;98885;-77
2021/04/15 02:24:15;;;;;;;;;;;;;;;8.05;42.16;102393.75;4995719;28;96685;-77
2021/04/15 02:26:42;;;;;;;;;;;;;;;7.96;42.88;102397.22;4991994;28;98732;-77
2021/04/15 02:29:09;;;;;;;;;;;;;;;7.73;43.52;102398.06;4994926;28;99016;-77
2021/04/15 02:31:39;;;;;;;;;;;;;;;7.59;43.89;102393.66;4994661;28;98769;-77
2021/04/15 02:34:06;;;;;;;;;;;;;;;7.38;45.14;102396.22;4995862;28;97169;-76
2021/04/15 02:36:41;;;;;;;;;;;;;;;7.57;44.21;102389.25;4991871;28;97118;-77
2021/04/15 02:39:09;;;;;;;;;;;;;;;7.18;45.39;102393.50;4993359;28;99012;-77
2021/04/15 02:41:37;;;;;;;;;;;;;;;7.55;44.56;102383.97;4995215;28;99003;-77
2021/04/15 02:44:07;;;;;;;;;;;;;;;7.16;45.42;102396.97;4993312;28;98659;-77
2021/04/15 02:46:36;;;;;;;;;;;;;;;7.09;46.25;102389.94;4994296;28;97321;-77
2021/04/15 02:49:04;;;;;;;;;;;;;;;7.14;46.55;102388.22;4989451;28;98952;-77
2021/04/15 02:51:32;;;;;;;;;;;;;;;7.57;45.42;102392.75;4992684;28;99892;-77
2021/04/15 02:54:00;;;;;;;;;;;;;;;7.47;45.69;102388.38;4996049;28;97197;-77
2021/04/15 02:56:29;;;;;;;;;;;;;;;7.82;44.90;102391.06;4994436;28;97000;-77
2021/04/15 02:58:58;;;;;;;;;;;;;;;7.72;45.07;102389.31;4993864;28;100172;-77
2021/04/15 03:01:27;;;;;;;;;;;;;;;7.91;44.88;102391.09;4993026;28;98869;-76
2021/04/15 03:03:54;;;;;;;;;;;;;;;8.18;44.21;102379.72;4994722;28;98746;-77
2021/04/15 03:06:22;;;;;;;;;;;;;;;8.58;43.57;102385.00;4994676;28;96897;-77
2021/04/15 03:08:49;;;;;;;;;;;;;;;7.99;44.49;102384.09;5005707;28;97983;-78
2021/04/15 03:11:17;;;;;;;;;;;;;;;8.12;44.67;102384.97;4994005;28;99082;-76
2021/04/15 03:13:46;;;;;;;;;;;;;;;8.04;44.66;102385.84;4994686;28;96978;-77
2021/04/15 03:16:15;;;;;;;;;;;;;;;7.30;46.19;102390.03;4992341;28;97293;-77
2021/04/15 03:18:42;;;;;;;;;;;;;;;7.79;45.71;102390.19;4992873;28;98922;-77
2021/04/15 03:21:12;;;;;;;;;;;;;;;7.04;47.26;102391.66;4993678;28;98995;-77
2021/04/15 03:23:42;;;;;;;;;;;;;;;6.50;48.87;102393.06;4993420;28;97145;-77
2021/04/15 03:26:11;;;;;;;;;;;;;;;6.82;48.39;102398.56;4996113;28;97302;-77
2021/04/15 03:28:40;;;;;;;;;;;;;;;7.15;48.00;102396.09;4991056;28;99168;-77
2021/04/15 03:31:10;;;;;;;;;;;;;;;6.94;48.46;102395.13;4991670;28;97514;-77
2021/04/15 03:33:39;;;;;;;;;;;;;;;7.28;47.42;102391.81;4994269;28;96901;-76
2021/04/15 03:36:07;;;;;;;;;;;;;;;6.78;48.14;102384.53;4993579;28;96918;-76
2021/04/15 03:38:35;;;;;;;;;;;;;;;6.63;48.98;102387.03;4996920;28;99160;-76
2021/04/15 03:41:04;;;;;;;;;;;;;;;6.38;49.86;102395.63;4997154;28;99239;-76
2021/04/15 03:43:31;;;;;;;;;;;;;;;6.37;50.30;102391.22;4999682;28;97654;-77
2021/04/15 03:46:03;;;;;;;;;;;;;;;6.43;49.34;102396.56;4991073;28;97101;-77
2021/04/15 03:48:33;;;;;;;;;;;;;;;6.21;50.63;102384.09;4994216;28;96817;-77
2021/04/15 03:51:00;;;;;;;;;;;;;;;5.90;51.17;102404.84;4992545;28;99227;-78
2021/04/15 03:53:28;;;;;;;;;;;;;;;6.11;51.32;102393.63;4994123;28;96978;-78
2021/04/15 03:55:56;;;;;;;;;;;;;;;5.86;51.12;102394.25;4994547;28;96810;-78
2021/04/15 03:58:24;;;;;;;;;;;;;;;6.18;51.16;102397.19;4992687;28;98430;-78
2021/04/15 04:00:52;;;;;;;;;;;;;;;5.88;51.43;102388.19;4993509;28;99251;-77
2021/04/15 04:03:18;;;;;;;;;;;;;;;6.08;51.06;102390.13;4994590;28;98647;-79
2021/04/15 04:05:47;;;;;;;;;;;;;;;6.23;50.94;102398.13;4987752;28;96765;-77
2021/04/15 04:08:15;;;;;;;;;;;;;;;6.20;50.67;102392.84;4992372;28;99459;-77
2021/04/15 04:10:43;;;;;;;;;;;;;;;5.91;50.79;102398.69;4988902;28;97827;-77
2021/04/15 04:13:17;;;;;;;;;;;;;;;6.17;50.72;102400.72;4994586;28;96938;-77
2021/04/15 04:15:45;;;;;;;;;;;;;;;6.10;51.16;102396.28;4992960;28;98269;-77
2021/04/15 04:18:12;;;;;;;;;;;;;;;6.13;50.45;102401.53;4991562;28;98956;-77
2021/04/15 04:20:39;;;;;;;;;;;;;;;6.32;50.36;102409.56;4995439;28;99544;-77
2021/04/15 04:23:10;;;;;;;;;;;;;;;6.38;50.29;102400.88;4993558;28;97130;-77
2021/04/15 04:25:39;;;;;;;;;;;;;;;6.54;49.37;102413.25;4992993;28;96807;-77
2021/04/15 04:28:08;;;;;;;;;;;;;;;6.53;49.31;102416.75;4990073;28;99740;-77
2021/04/15 04:30:38;;;;;;;;;;;;;;;6.41;49.98;102421.91;4991622;28;99139;-77
2021/04/15 04:33:06;;;;;;;;;;;;;;;6.61;49.26;102417.69;4993808;28;96843;-77
2021/04/15 04:35:35;;;;;;;;;;;;;;;6.58;49.29;102422.91;4989976;28;97579;-76
2021/04/15 04:38:02;;;;;;;;;;;;;;;6.51;49.87;102417.59;4993961;28;99543;-77
2021/04/15 04:40:33;;;;;;;;;;;;;;;6.83;48.99;102416.06;5003691;28;98881;-77
2021/04/15 04:43:01;;;;;;;;;;;;;;;7.12;48.68;102424.13;5010555;28;96589;-77
2021/04/15 04:45:28;;;;;;;;;;;;;;;7.09;48.27;102422.34;5012168;28;96780;-76
2021/04/15 04:47:57;;;;;;;;;;;;;;;7.26;48.24;102421.56;5014950;28;97771;-77
2021/04/15 04:50:33;;;;;;;;;;;;;;;7.14;48.43;102420.66;5010266;28;99773;-77
2021/04/15 04:53:00;;;;;;;;;;;;;;;6.84;48.71;102432.72;5013276;28;96545;-79
2021/04/15 04:55:30;;;;;;;;;;;;;;;6.77;49.22;102422.16;5010112;28;97867;-78
2021/04/15 04:57:57;;;;;;;;;;;;;;;6.47;50.16;102428.94;4990474;28;99132;-78
2021/04/15 05:00:24;;;;;;;;;;;;;;;6.32;50.92;102434.94;4990508;28;99373;-77
2021/04/15 05:02:50;;;;;;;;;;;;;;;5.90;52.40;102430.19;4991276;28;98859;-79
2021/04/15 05:05:20;;;;;;;;;;;;;;;6.23;51.24;102434.88;4990832;28;97143;-79
2021/04/15 05:07:46;;;;;;;;;;;;;;;6.74;50.23;102437.94;4989862;28;98991;-78
2021/04/15 05:10:18;;;;;;;;;;;;;;;6.76;49.80;102433.53;4991630;28;97951;-78
2021/04/15 05:12:45;;;;;;;;;;;;;;;6.92;49.32;102431.03;4992571;28;96790;-77
2021/04/15 05:15:13;;;;;;;;;;;;;;;6.85;49.58;102431.84;4987670;28;96984;-77
2021/04/15 05:17:41;;;;;;;;;;;;;;;7.18;48.64;102439.94;4990548;28;99390;-77
2021/04/15 05:20:08;;;;;;;;;;;;;;;6.83;49.59;102438.88;4984364;28;98866;-78
2021/04/15 05:22:35;;;;;;;;;;;;;;;6.73;49.66;102437.91;4991924;28;98892;-78
2021/04/15 05:25:04;;;;;;;;;;;;;;;7.20;48.95;102431.19;4989249;28;97003;-78
2021/04/15 05:27:32;;;;;;;;;;;;;;;7.38;48.37;102435.66;4990240;28;98923;-78
2021/04/15 05:30:12;;;;;;;;;;;;;;;7.75;47.48;102425.25;4991158;28;99439;-77
2021/04/15 05:32:40;;;;;;;;;;;;;;;7.20;48.46;102431.19;4990498;28;97296;-77
2021/04/15 05:35:06;;;;;;;;;;;;;;;7.11;48.74;102443.41;4992505;28;97774;-77
2021/04/15 05:37:32;;;;;;;;;;;;;;;7.66;47.67;102430.50;4989939;28;99134;-78
2021/04/15 05:39:57;;;;;;;;;;;;;;;7.22;47.95;102425.06;4992992;28;97664;-78
2021/04/15 05:42:26;;;;;;;;;;;;;;;7.51;47.56;102426.94;4995449;28;96850;-77
2021/04/15 05:44:54;;;;;;;;;;;;;;;7.50;47.89;102425.19;4992748;28;98702;-78
2021/04/15 05:47:23;;;;;;;;;;;;;;;7.21;47.82;102432.09;4993466;28;101060;-78
2021/04/15 05:49:51;;;;;;;;;;;;;;;7.98;46.25;102434.09;4992302;28;98801;-78
2021/04/15 05:52:23;;;;;;;;;;;;;;;7.70;46.18;102437.53;4992917;28;97947;-77
2021/04/15 05:54:49;;;;;;;;;;;;;;;7.59;46.16;102437.50;4994734;28;98753;-77
2021/04/15 05:57:16;;;;;;;;;;;;;;;7.89;45.56;102440.22;4994008;28;98883;-79
2021/04/15 05:59:49;;;;;;;;;;;;;;;7.60;46.27;102434.88;4991646;28;98857;-79
2021/04/15 06:02:27;;;;;;;;;;;;;;;8.48;44.26;102438.56;4991429;28;97490;-77
2021/04/15 06:04:57;;;;;;;;;;;;;;;8.65;43.82;102440.31;4989082;28;98546;-78
2021/04/15 06:07:25;;;;;;;;;;;;;;;8.25;44.28;102439.41;4991056;28;99347;-77
2021/04/15 06:09:51;;;;;;;;;;;;;;;8.36;43.97;102442.94;4991733;28;99396;-78
2021/04/15 06:12:20;;;;;;;;;;;;;;;8.12;44.47;102442.03;4989593;28;99164;-77
2021/04/15 06:14:49;;;;;;;;;;;;;;;7.69;45.87;102441.03;4974063;28;96997;-76
2021/04/15 06:17:21;;;;;;;;;;;;;;;8.11;44.65;102441.13;4987961;28;99025;-75
2021/04/15 06:19:50;;;;;;;;;;;;;;;7.71;45.46;102452.44;4995616;28;98906;-78
2021/04/15 06:22:17;;;;;;;;;;;;;;;7.66;45.53;102456.81;4995083;28;96975;-77
2021/04/15 06:24:44;;;;;;;;;;;;;;;7.88;45.61;102448.09;5002393;28;97982;-77
2021/04/15 06:27:10;;;;;;;;;;;;;;;7.46;46.51;102449.72;5009331;28;99140;-77
2021/04/15 06:29:40;;;;;;;;;;;;;;;7.71;45.86;102450.69;5012113;28;97699;-77
2021/04/15 06:32:07;;;;;;;;;;;;;;;7.71;45.56;102449.81;5012855;28;96683;-77
2021/04/15 06:34:33;;;;;;;;;;;;;;;8.29;44.45;102446.41;5015078;28;96702;-77
2021/04/15 06:37:02;;;;;;;;;;;;;;;7.74;45.39;102449.84;5003791;28;98108;-77
2021/04/15 06:39:31;;;;;;;;;;;;;;;7.79;45.65;102446.34;4999060;28;98133;-77
2021/04/15 06:42:03;;;;;;;;;;;;;;;8.16;44.41;102449.91;4995192;28;97695;-78
2021/04/15 06:44:45;;;;;;;;;;;;;;;7.28;46.36;102443.50;4994966;28;96872;-78
2021/04/15 06:47:18;;;;;;;;;;;;;;;7.49;46.02;102443.59;4992419;28;98995;-78
2021/04/15 06:49:57;;;;;;;;;;;;;;;8.05;45.51;102438.50;4975646;28;99053;-77
2021/04/15 06:52:26;;;;;;;;;;;;;;;8.30;44.60;102447.31;4996983;28;96787;-78
2021/04/15 06:55:00;;;;;;;;;;;;;;;8.76;43.46;102438.53;4996549;28;96754;-78
2021/04/15 06:57:40;;;;;;;;;;;;;;;8.57;44.21;102449.09;4995966;28;98264;-77
2021/04/15 07:00:12;;;;;;;;;;;;;;;8.07;45.27;102447.28;4989731;28;98990;-78
2021/04/15 07:02:48;;;;;;;;;;;;;;;8.70;43.97;102440.31;4994989;28;97142;-77
2021/04/15 07:05:17;;;;;;;;;;;;;;;9.17;42.70;102434.94;4997470;28;97141;-77
2021/04/15 07:07:47;;;;;;;;;;;;;;;9.02;43.00;102435.84;4992900;28;98973;-77
2021/04/15 07:10:17;;;;;;;;;;;;;;;9.53;41.62;102433.91;4985879;28;98915;-77
2021/04/15 07:13:06;;;;;;;;;;;;;;;9.06;42.45;102434.97;4991088;28;97577;-78
2021/04/15 07:15:38;;;;;;;;;;;;;;;9.08;42.55;102435.84;4987657;28;96979;-76
2021/04/15 07:18:12;;;;;;;;;;;;;;;9.32;42.03;102434.88;4993046;28;99312;-77
2021/04/15 07:20:52;;;;;;;;;;;;;;;9.50;42.03;102428.66;4994158;28;98892;-78
2021/04/15 07:23:32;;;;;;;;;;;;;;;9.65;41.00;102436.50;4989468;28;97415;-79
2021/04/15 07:26:05;;;;;;;;;;;;;;;9.25;42.10;102432.28;4992805;28;97266;-77
2021/04/15 07:28:47;;;;;;;;;;;;;;;10.28;40.16;102429.09;4990315;28;98987;-78
2021/04/15 07:31:33;;;;;;;;;;;;;;;9.42;41.31;102441.00;4993713;28;99874;-77
2021/04/15 07:34:14;;;;;;;;;;;;;;;10.08;40.25;102438.91;4994306;28;96992;-76
2021/04/15 07:37:01;;;;;;;;;;;;;;;9.25;41.11;102441.09;4987808;28;97041;-78
2021/04/15 07:39:35;;;;;;;;;;;;;;;10.07;40.25;102437.16;4989734;28;99249;-78
2021/04/15 07:42:12;;;;;;;;;;;;;;;9.80;40.17;102438.19;4997638;28;98016;-77
2021/04/15 07:44:41;;;;;;;;;;;;;;;9.07;41.64;102441.13;4998093;28;97330;-77
2021/04/15 07:47:21;;;;;;;;;;;;;;;9.22;40.99;102442.84;4995350;28;100195;-77
2021/04/15 07:50:02;;;;;;;;;;;;;;;10.27;38.94;102440.56;4982303;28;99424;-77
2021/04/15 07:52:47;;;;;;;;;;;;;;;9.54;39.99;102447.13;4996030;28;98925;-77
2021/04/15 07:55:43;;;;;;;;;;;;;;;10.17;39.10;102449.44;4995301;28;97354;-78
2021/04/15 07:58:22;;;;;;;;;;;;;;;10.49;37.93;102439.50;4935451;28;96872;-77
2021/04/15 08:00:57;;;;;;;;;;;;;;;11.45;36.61;102431.44;4985284;28;99522;-76
2021/04/15 08:03:34;;;;;;;;;;;;;;;10.98;36.84;102436.41;4982567;28;98689;-77
2021/04/15 08:06:11;;;;;;;;;;;;;;;11.41;35.58;102442.09;4990778;28;97835;-76
2021/04/15 08:09:04;;;;;;;;;;;;;;;11.23;36.06;102444.94;4995285;28;98218;-79
2021/04/15 08:11:36;;;;;;;;;;;;;;;11.15;35.31;102452.97;4981061;28;99080;-78
2021/04/15 08:14:26;;;;;;;;;;;;;;;10.80;35.75;102448.03;5008159;28;98839;-78
2021/04/15 08:16:56;;;;;;;;;;;;;;;10.31;35.80;102451.09;5011259;28;96241;-78
2021/04/15 08:19:49;;;;;;;;;;;;;;;10.13;35.57;102448.53;5014580;28;96969;-76
2021/04/15 08:22:24;;;;;;;;;;;;;;;10.20;35.54;102447.66;4991960;28;97887;-77
2021/04/15 08:24:59;;;;;;;;;;;;;;;11.50;33.65;102441.97;5008084;28;97725;-76
2021/04/15 08:27:52;;;;;;;;;;;;;;;12.00;32.49;102453.69;5013210;28;96955;-78
2021/04/15 08:30:34;;;;;;;;;;;;;;;11.13;33.00;102449.47;5013312;28;96751;-78
2021/04/15 08:33:13;;;;;;;;;;;;;;;9.91;35.45;102446.94;5008481;28;98219;-78
2021/04/15 08:35:56;;;;;;;;;;;;;;;10.80;34.08;102448.03;5013481;28;97750;-79
2021/04/15 08:38:25;;;;;;;;;;;;;;;10.22;34.81;102443.25;4997026;28;98926;-78
2021/04/15 08:40:56;;;;;;;;;;;;;;;9.67;36.03;102458.50;4983452;28;96986;-79
2021/04/15 08:43:32;;;;;;;;;;;;;;;9.66;36.58;102443.53;4995322;28;98812;-78
2021/04/15 08:46:03;;;;;;;;;;;;;;;10.52;35.39;102457.97;4997714;28;98819;-79
2021/04/15 08:48:38;;;;;;;;;;;;;;;11.33;34.02;102443.94;4999903;28;96991;-79
2021/04/15 08:51:11;;;;;;;;;;;;;;;12.04;32.42;102440.38;5002272;28;97643;-79
2021/04/15 08:53:47;;;;;;;;;;;;;;;11.08;33.58;102444.25;4998511;28;101393;-80
2021/04/15 08:56:15;;;;;;;;;;;;;;;11.24;33.18;102439.63;4995313;28;97432;-78
2021/04/15 08:59:02;;;;;;;;;;;;;;;11.62;32.44;102431.22;4996126;28;96919;-77
2021/04/15 09:01:35;;;;;;;;;;;;;;;11.25;32.44;102440.50;4996330;28;96872;-78
2021/04/15 09:04:05;;;;;;;;;;;;;;;10.87;32.56;102436.50;4994538;28;99445;-78
2021/04/15 09:06:38;;;;;;;;;;;;;;;11.13;31.90;102425.66;4995943;28;101393;-77
2021/04/15 09:09:14;;;;;;;;;;;;;;;12.48;29.87;102425.53;4996169;28;98289;-76
2021/04/15 09:11:42;;;;;;;;;;;;;;;13.15;27.99;102423.47;4994295;28;97100;-77
2021/04/15 09:14:15;;;;;;;;;;;;;;;11.82;29.12;102421.25;4992793;28;101342;-78
2021/04/15 09:16:42;;;;;;;;;;;;;;;11.71;29.09;102422.28;4995427;28;99518;-79
2021/04/15 09:19:12;;;;;;;;;;;;;;;11.43;28.52;102420.00;4993333;28;98511;-78
2021/04/15 09:21:46;;;;;;;;;;;;;;;11.89;28.96;102414.97;4994558;28;97437;-77
2021/04/15 09:24:20;;;;;;;;;;;;;;;12.61;26.96;102413.81;4989420;28;98235;-77
2021/04/15 09:26:54;;;;;;;;;;;;;;;12.53;26.51;102418.41;4993216;28;99302;-78
2021/04/15 09:29:23;;;;;;;;;;;;;;;13.14;25.40;102412.84;4997454;28;97026;-78
2021/04/15 09:31:53;;;;;;;;;;;;;;;12.48;25.25;102414.94;4991286;28;97044;-78
2021/04/15 09:34:38;;;;;;;;;;;;;;;12.08;26.16;102415.56;4994235;28;99283;-78
2021/04/15 09:37:14;;;;;;;;;;;;;;;11.67;26.13;102425.88;5001991;28;99127;-79
2021/04/15 09:39:47;;;;;;;;;;;;;;;12.25;25.63;102428.59;5001101;28;96856;-78
2021/04/15 09:42:18;;;;;;;;;;;;;;;12.90;24.65;102414.19;4993156;28;97298;-78
2021/04/15 09:44:53;;;;;;;;;;;;;;;12.61;25.25;102411.16;4994892;28;98687;-78
2021/04/15 09:47:27;;;;;;;;;;;;;;;12.70;25.30;102421.63;4996082;28;99083;-77
2021/04/15 09:49:59;;;;;;;;;;;;;;;12.37;25.38;102413.34;4985093;28;97965;-79
2021/04/15 09:52:34;;;;;;;;;;;;;;;12.11;26.00;102407.59;4991927;28;97449;-79
2021/04/15 09:55:06;;;;;;;;;;;;;;;11.56;26.87;102410.13;4992772;28;99258;-79
2021/04/15 09:57:37;;;;;;;;;;;;;;;12.04;25.92;102413.88;4995608;28;98795;-79
2021/04/15 10:00:08;;;;;;;;;;;;;;;12.82;23.96;102410.78;5003921;28;97341;-79
2021/04/15 10:02:37;;;;;;;;;;;;;;;13.87;22.85;102412.19;4999916;28;97317;-79
2021/04/15 10:05:05;;;;;;;;;;;;;;;13.79;22.35;102424.75;5003369;28;97212;-78
2021/04/15 10:07:37;;;;;;;;;;;;;;;12.42;24.21;102423.88;4996349;28;97752;-77
2021/04/15 10:10:13;;;;;;;;;;;;;;;12.57;24.38;102414.78;4994516;28;97156;-81
2021/04/15 10:12:57;;;;;;;;;;;;;;;12.63;23.94;102417.34;4993287;28;96856;-77
2021/04/15 10:15:28;;;;;;;;;;;;;;;13.61;23.17;102405.69;4999971;28;99097;-77
2021/04/15 10:18:04;;;;;;;;;;;;;;;12.73;23.73;102421.59;4995639;28;98053;-77
2021/04/15 10:20:48;;;;;;;;;;;;;;;13.10;24.32;102420.00;4992504;28;97517;-77
2021/04/15 10:23:25;;;;;;;;;;;;;;;12.77;24.37;102423.28;4994603;28;97660;-78
2021/04/15 10:25:56;;;;;;;;;;;;;;;12.02;25.59;102431.56;4992384;28;98489;-80
2021/04/15 10:28:40;;;;;;;;;;;;;;;12.02;25.47;102425.38;4992776;28;97956;-76
2021/04/15 10:31:18;;;;;;;;;;;;;;;11.78;26.05;102416.91;4989231;28;96899;-78
2021/04/15 10:34:14;;;;;;;;;;;;;;;12.39;25.68;102426.59;4995294;28;96811;-79
2021/04/15 10:36:55;;;;;;;;;;;;;;;12.57;25.26;102422.75;4950682;28;99545;-78
2021/04/15 10:39:30;;;;;;;;;;;;;;;11.47;26.86;102416.44;4988743;28;99791;-78
2021/04/15 10:42:10;;;;;;;;;;;;;;;10.81;27.70;102419.84;4995021;28;96981;-76
2021/04/15 10:44:54;;;;;;;;;;;;;;;11.07;27.93;102423.09;4996187;28;97039;-77
2021/04/15 10:47:32;;;;;;;;;;;;;;;12.05;26.72;102420.94;4988465;28;98840;-77
2021/04/15 10:50:02;;;;;;;;;;;;;;;11.34;27.38;102430.72;4995107;28;99338;-78
2021/04/15 10:52:39;;;;;;;;;;;;;;;10.88;28.57;102424.16;4996614;28;96965;-76
2021/04/15 10:55:13;;;;;;;;;;;;;;;10.87;28.79;102428.56;4993390;28;97176;-77
2021/04/15 10:57:39;;;;;;;;;;;;;;;11.38;27.55;102419.19;4997791;28;98901;-76
2021/04/15 11:00:18;;;;;;;;;;;;;;;11.24;27.85;102404.34;4991162;28;97714;-77
2021/04/15 11:02:50;;;;;;;;;;;;;;;11.23;28.10;102414.06;4998417;28;96822;-78
2021/04/15 11:05:21;;;;;;;;;;;;;;;11.31;27.99;102412.19;4991997;28;98130;-77
2021/04/15 11:07:47;;;;;;;;;;;;;;;12.57;26.57;102398.88;4993828;28;98869;-77
2021/04/15 11:10:21;;;;;;;;;;;;;;;12.60;26.28;102404.16;4995453;28;99280;-79
2021/04/15 11:12:47;;;;;;;;;;;;;;;12.42;26.55;102399.13;4996825;28;97967;-78
2021/04/15 11:15:17;;;;;;;;;;;;;;;12.85;26.36;102402.78;4994289;28;97163;-77
2021/04/15 11:17:44;;;;;;;;;;;;;;;11.76;27.84;102392.22;4988134;28;100279;-78
2021/04/15 11:20:20;;;;;;;;;;;;;;;11.48;28.67;102391.72;4996086;28;98894;-78
2021/04/15 11:22:52;;;;;;;;;;;;;;;10.97;29.47;102408.19;4998103;28;96908;-77
2021/04/15 11:25:21;;;;;;;;;;;;;;;11.35;29.63;102405.13;4997905;28;97448;-76
2021/04/15 11:27:48;;;;;;;;;;;;;;;12.43;27.96;102407.06;4996564;28;99889;-77
2021/04/15 11:30:27;;;;;;;;;;;;;;;11.50;29.72;102397.84;4996996;28;101361;-80
2021/04/15 11:32:53;;;;;;;;;;;;;;;11.23;29.91;102392.88;4999611;28;96925;-78
2021/04/15 11:35:20;;;;;;;;;;;;;;;10.48;31.79;102394.59;5004963;28;97294;-78
2021/04/15 11:37:48;;;;;;;;;;;;;;;10.72;31.53;102413.72;5000410;28;98986;-77
2021/04/15 11:40:32;;;;;;;;;;;;;;;10.59;31.34;102416.50;4996093;28;99013;-77
2021/04/15 11:43:00;;;;;;;;;;;;;;;10.86;31.42;102410.06;4996552;28;97917;-77
2021/04/15 11:45:28;;;;;;;;;;;;;;;12.04;30.08;102391.81;5003879;28;96811;-77
2021/04/15 11:48:08;;;;;;;;;;;;;;;12.32;29.72;102409.91;4996902;28;99095;-78
2021/04/15 11:50:34;;;;;;;;;;;;;;;11.66;31.17;102400.28;4995368;28;99456;-78
2021/04/15 11:53:20;;;;;;;;;;;;;;;12.64;30.63;102396.09;5002033;28;97261;-77
2021/04/15 11:55:46;;;;;;;;;;;;;;;12.73;29.97;102393.25;4990960;28;97608;-77
2021/04/15 11:58:29;;;;;;;;;;;;;;;11.73;31.30;102394.91;4993489;28;99056;-78
2021/04/15 12:00:58;;;;;;;;;;;;;;;11.70;31.33;102394.03;4994903;28;98845;-77
2021/04/15 12:03:26;;;;;;;;;;;;;;;11.67;31.04;102392.34;4994729;28;97487;-76
2021/04/15 12:05:53;;;;;;;;;;;;;;;11.64;31.16;102388.84;4997118;28;96971;-77
2021/04/15 12:08:22;;;;;;;;;;;;;;;11.88;30.26;102383.25;4995846;28;98852;-77
2021/04/15 12:10:52;;;;;;;;;;;;;;;11.88;30.47;102386.75;4994798;28;99151;-78
2021/04/15 12:13:21;;;;;;;;;;;;;;;12.05;30.16;102381.19;4998624;28;97081;-77
2021/04/15 12:15:51;;;;;;;;;;;;;;;11.36;30.80;102381.25;4996707;28;96942;-78
2021/04/15 12:18:20;;;;;;;;;;;;;;;11.90;30.34;102392.03;4997382;28;99041;-78
2021/04/15 12:20:48;;;;;;;;;;;;;;;11.53;30.29;102379.28;4994554;28;98661;-78
2021/04/15 12:23:18;;;;;;;;;;;;;;;11.35;30.49;102370.72;4998507;28;96870;-77
2021/04/15 12:25:49;;;;;;;;;;;;;;;11.78;30.02;102373.66;4994869;28;97700;-78
2021/04/15 12:28:27;;;;;;;;;;;;;;;11.27;31.25;102369.94;4994412;28;98294;-76
2021/04/15 12:30:57;;;;;;;;;;;;;;;11.22;31.10;102361.19;4996445;28;98127;-77
2021/04/15 12:33:26;;;;;;;;;;;;;;;11.11;30.93;102361.28;4992340;28;97543;-78
2021/04/15 12:35:56;;;;;;;;;;;;;;;10.57;31.99;102363.66;4995059;28;97062;-76
2021/04/15 12:38:24;;;;;;;;;;;;;;;10.67;32.10;102364.44;4991513;28;98974;-77
2021/04/15 12:40:51;;;;;;;;;;;;;;;10.05;33.06;102364.97;4995085;28;100600;-76
2021/04/15 12:43:18;;;;;;;;;;;;;;;10.93;31.67;102364.16;5012442;28;97002;-77
2021/04/15 12:45:46;;;;;;;;;;;;;;;11.29;31.10;102355.75;5005483;28;96972;-77
2021/04/15 12:48:14;;;;;;;;;;;;;;;11.53;30.33;102347.50;5007825;28;99261;-77
2021/04/15 12:50:41;;;;;;;;;;;;;;;11.42;30.12;102341.47;5011847;28;98627;-77
2021/04/15 12:53:08;;;;;;;;;;;;;;;10.99;30.43;102350.88;5014084;28;96939;-78
2021/04/15 12:55:34;;;;;;;;;;;;;;;11.94;29.06;102340.75;5024511;28;96939;-77
2021/04/15 12:58:01;;;;;;;;;;;;;;;11.61;29.34;102333.28;5020146;28;97915;-75
2021/04/15 13:00:34;;;;;;;;;;;;;;;12.64;28.16;102331.56;5015215;28;99859;-77
2021/04/15 13:03:08;;;;;;;;;;;;;;;12.50;27.98;102330.94;4997957;28;97445;-77